Flugplatz Leutkirch-Unterzeil

Für EDNL sind keine METAR/TAF Berichte vorhanden.
Es werden die Flugwettermeldungen vom Flugplatz Memmingen Allgau in 22 km Entfernung angezeigt.

Bericht für EDJA

vom 18.09. um 22:50 UTC

Wind 5 kt aus 50°

Sichtweite 10 km oder mehr

keine Wolken

Temperatur 10.0°C

Taupunkt 8.0°C

Luftfeuchtigkeit 87%

Luftdruck 1022 hPa

EDJA 182250Z AUTO 05005KT 9999 // NCD 10/08 Q1022

Prognose für EDJA

vom 18.09. um 17:00 UTC

Am 18.09. zwischen 18:00 UTC und 03:00 UTC

Wind 6 kt aus 60°

Sichtweite 10 km oder mehr

keine signifikanten Wettererscheinungen

keine Wolken


Am 18.09. zwischen 22:00 UTC und 03:00 UTC zeitweise mit einer Wahrscheinlichkeit von 40%

Sichtweite 1500 m

Nebelschwaden

aufgebrochene Bewölkung in 400 ft

TAF EDJA 181700Z 1818/1903 06006KT CAVOK PROB40 TEMPO 1822/1903 1500 BCFG BKN004
Impressum